sensor_id;sensor_type;location;lat;lon;timestamp;pressure;altitude;pressure_sealevel;temperature;humidity
7834;BME280;3962;42.696;23.354;2024-02-14T00:00:25;94863.75;;;6.52;85.50
7834;BME280;3962;42.696;23.354;2024-02-14T00:02:53;94862.09;;;6.51;85.63
7834;BME280;3962;42.696;23.354;2024-02-14T00:05:20;94867.19;;;6.43;85.83
7834;BME280;3962;42.696;23.354;2024-02-14T00:07:48;94872.66;;;6.51;85.49
7834;BME280;3962;42.696;23.354;2024-02-14T00:10:15;94874.34;;;6.52;85.59
7834;BME280;3962;42.696;23.354;2024-02-14T00:12:42;94872.31;;;6.35;86.16
7834;BME280;3962;42.696;23.354;2024-02-14T00:15:11;94871.63;;;6.42;85.56
7834;BME280;3962;42.696;23.354;2024-02-14T00:17:39;94866.75;;;6.38;86.50
7834;BME280;3962;42.696;23.354;2024-02-14T00:20:07;94875.38;;;6.40;86.30
7834;BME280;3962;42.696;23.354;2024-02-14T00:22:36;94881.13;;;6.45;85.98
7834;BME280;3962;42.696;23.354;2024-02-14T00:25:03;94888.63;;;6.49;85.56
7834;BME280;3962;42.696;23.354;2024-02-14T00:27:30;94891.00;;;6.52;85.83
7834;BME280;3962;42.696;23.354;2024-02-14T00:29:57;94884.91;;;6.52;85.17
7834;BME280;3962;42.696;23.354;2024-02-14T00:32:24;94883.25;;;6.60;85.89
7834;BME280;3962;42.696;23.354;2024-02-14T00:34:52;94889.09;;;6.54;85.37
7834;BME280;3962;42.696;23.354;2024-02-14T00:37:19;94883.47;;;6.48;84.83
7834;BME280;3962;42.696;23.354;2024-02-14T00:39:46;94889.88;;;6.45;85.52
7834;BME280;3962;42.696;23.354;2024-02-14T00:42:14;94889.63;;;6.48;85.17
7834;BME280;3962;42.696;23.354;2024-02-14T00:44:40;94886.56;;;6.53;84.96
7834;BME280;3962;42.696;23.354;2024-02-14T00:47:07;94893.41;;;6.55;86.00
7834;BME280;3962;42.696;23.354;2024-02-14T00:49:34;94889.50;;;6.59;85.48
7834;BME280;3962;42.696;23.354;2024-02-14T00:52:03;94881.06;;;6.65;85.48
7834;BME280;3962;42.696;23.354;2024-02-14T00:54:31;94895.13;;;6.66;85.43
7834;BME280;3962;42.696;23.354;2024-02-14T00:56:57;94891.91;;;6.72;84.33
7834;BME280;3962;42.696;23.354;2024-02-14T00:59:24;94890.13;;;6.72;84.31
7834;BME280;3962;42.696;23.354;2024-02-14T01:01:51;94893.56;;;6.63;84.96
7834;BME280;3962;42.696;23.354;2024-02-14T01:04:18;94889.38;;;6.61;84.72
7834;BME280;3962;42.696;23.354;2024-02-14T01:06:44;94897.03;;;6.54;84.40
7834;BME280;3962;42.696;23.354;2024-02-14T01:09:13;94894.56;;;6.62;84.94
7834;BME280;3962;42.696;23.354;2024-02-14T01:11:39;94893.16;;;6.68;84.61
7834;BME280;3962;42.696;23.354;2024-02-14T01:14:06;94893.97;;;6.59;83.80
7834;BME280;3962;42.696;23.354;2024-02-14T01:16:33;94887.59;;;6.61;83.36
7834;BME280;3962;42.696;23.354;2024-02-14T01:19:00;94892.81;;;6.52;84.67
7834;BME280;3962;42.696;23.354;2024-02-14T01:21:27;94888.34;;;6.43;84.52
7834;BME280;3962;42.696;23.354;2024-02-14T01:23:54;94881.13;;;6.45;84.34
7834;BME280;3962;42.696;23.354;2024-02-14T01:26:22;94884.44;;;6.47;84.39
7834;BME280;3962;42.696;23.354;2024-02-14T01:28:49;94885.81;;;6.41;84.95
7834;BME280;3962;42.696;23.354;2024-02-14T01:31:15;94887.25;;;6.45;85.34
7834;BME280;3962;42.696;23.354;2024-02-14T01:33:42;94881.16;;;6.54;84.96
7834;BME280;3962;42.696;23.354;2024-02-14T01:36:11;94887.97;;;6.57;85.27
7834;BME280;3962;42.696;23.354;2024-02-14T01:38:38;94886.75;;;6.61;83.76
7834;BME280;3962;42.696;23.354;2024-02-14T01:41:05;94887.59;;;6.61;83.45
7834;BME280;3962;42.696;23.354;2024-02-14T01:43:33;94890.19;;;6.52;83.44
7834;BME280;3962;42.696;23.354;2024-02-14T01:46:04;94881.00;;;6.46;84.79
7834;BME280;3962;42.696;23.354;2024-02-14T01:48:32;94872.38;;;6.54;84.77
7834;BME280;3962;42.696;23.354;2024-02-14T01:51:00;94885.59;;;6.54;84.21
7834;BME280;3962;42.696;23.354;2024-02-14T01:53:28;94884.78;;;6.53;84.44
7834;BME280;3962;42.696;23.354;2024-02-14T01:55:56;94886.69;;;6.51;84.28
7834;BME280;3962;42.696;23.354;2024-02-14T01:58:23;94886.13;;;6.48;83.26
7834;BME280;3962;42.696;23.354;2024-02-14T02:00:53;94894.09;;;6.57;83.98
7834;BME280;3962;42.696;23.354;2024-02-14T02:03:22;94892.16;;;6.59;83.57
7834;BME280;3962;42.696;23.354;2024-02-14T02:05:50;94887.84;;;6.58;83.83
7834;BME280;3962;42.696;23.354;2024-02-14T02:08:17;94888.25;;;6.54;84.02
7834;BME280;3962;42.696;23.354;2024-02-14T02:10:44;94893.81;;;6.51;83.95
7834;BME280;3962;42.696;23.354;2024-02-14T02:13:11;94898.94;;;6.52;83.58
7834;BME280;3962;42.696;23.354;2024-02-14T02:15:38;94900.59;;;6.44;82.85
7834;BME280;3962;42.696;23.354;2024-02-14T02:18:06;94907.53;;;6.45;84.05
7834;BME280;3962;42.696;23.354;2024-02-14T02:20:33;94906.00;;;6.42;84.63
7834;BME280;3962;42.696;23.354;2024-02-14T02:23:02;94907.84;;;6.51;83.81
7834;BME280;3962;42.696;23.354;2024-02-14T02:25:30;94903.81;;;6.57;83.53
7834;BME280;3962;42.696;23.354;2024-02-14T02:27:57;94908.88;;;6.60;82.97
7834;BME280;3962;42.696;23.354;2024-02-14T02:30:24;94914.97;;;6.60;82.96
7834;BME280;3962;42.696;23.354;2024-02-14T02:32:50;94892.88;;;6.61;83.36
7834;BME280;3962;42.696;23.354;2024-02-14T02:35:17;94900.22;;;6.58;83.01
7834;BME280;3962;42.696;23.354;2024-02-14T02:37:45;94910.81;;;6.37;83.00
7834;BME280;3962;42.696;23.354;2024-02-14T02:40:15;94911.16;;;6.44;82.66
7834;BME280;3962;42.696;23.354;2024-02-14T02:42:42;94913.53;;;6.47;82.73
7834;BME280;3962;42.696;23.354;2024-02-14T02:45:10;94919.78;;;6.46;82.56
7834;BME280;3962;42.696;23.354;2024-02-14T02:47:37;94931.81;;;6.59;82.86
7834;BME280;3962;42.696;23.354;2024-02-14T02:50:05;94930.41;;;6.55;83.12
7834;BME280;3962;42.696;23.354;2024-02-14T02:52:33;94925.34;;;6.43;83.16
7834;BME280;3962;42.696;23.354;2024-02-14T02:55:00;94935.00;;;6.53;82.22
7834;BME280;3962;42.696;23.354;2024-02-14T02:57:28;94934.16;;;6.53;83.09
7834;BME280;3962;42.696;23.354;2024-02-14T02:59:57;94932.34;;;6.53;81.76
7834;BME280;3962;42.696;23.354;2024-02-14T03:02:24;94937.19;;;6.48;83.26
7834;BME280;3962;42.696;23.354;2024-02-14T03:04:51;94946.19;;;6.46;83.37
7834;BME280;3962;42.696;23.354;2024-02-14T03:07:18;94939.88;;;6.58;82.72
7834;BME280;3962;42.696;23.354;2024-02-14T03:09:46;94938.63;;;6.62;82.31
7834;BME280;3962;42.696;23.354;2024-02-14T03:12:12;94946.09;;;6.57;82.43
7834;BME280;3962;42.696;23.354;2024-02-14T03:14:43;94951.84;;;6.62;82.39
7834;BME280;3962;42.696;23.354;2024-02-14T03:17:10;94950.00;;;6.53;82.13
7834;BME280;3962;42.696;23.354;2024-02-14T03:19:37;94958.44;;;6.47;81.40
7834;BME280;3962;42.696;23.354;2024-02-14T03:22:05;94960.13;;;6.48;81.99
7834;BME280;3962;42.696;23.354;2024-02-14T03:24:34;94972.13;;;6.52;82.82
7834;BME280;3962;42.696;23.354;2024-02-14T03:27:03;94972.13;;;6.52;82.83
7834;BME280;3962;42.696;23.354;2024-02-14T03:29:31;94964.81;;;6.44;81.93
7834;BME280;3962;42.696;23.354;2024-02-14T03:32:00;94976.31;;;6.54;81.83
7834;BME280;3962;42.696;23.354;2024-02-14T03:34:30;94981.44;;;6.56;81.52
7834;BME280;3962;42.696;23.354;2024-02-14T03:36:59;94980.03;;;6.52;81.59
7834;BME280;3962;42.696;23.354;2024-02-14T03:39:27;94986.69;;;6.46;81.76
7834;BME280;3962;42.696;23.354;2024-02-14T03:41:54;94983.66;;;6.51;81.50
7834;BME280;3962;42.696;23.354;2024-02-14T03:44:21;94981.84;;;6.51;81.58
7834;BME280;3962;42.696;23.354;2024-02-14T03:46:48;94996.59;;;6.54;81.17
7834;BME280;3962;42.696;23.354;2024-02-14T03:49:16;94991.97;;;6.46;81.63
7834;BME280;3962;42.696;23.354;2024-02-14T03:51:43;94994.84;;;6.43;82.52
7834;BME280;3962;42.696;23.354;2024-02-14T03:54:10;94996.28;;;6.47;81.68
7834;BME280;3962;42.696;23.354;2024-02-14T03:56:37;94985.97;;;6.44;82.17
7834;BME280;3962;42.696;23.354;2024-02-14T03:59:04;94985.84;;;6.46;82.22
7834;BME280;3962;42.696;23.354;2024-02-14T04:01:33;94974.69;;;6.42;81.63
7834;BME280;3962;42.696;23.354;2024-02-14T04:04:00;94987.72;;;6.34;82.51
7834;BME280;3962;42.696;23.354;2024-02-14T04:06:28;94991.78;;;6.38;81.20
7834;BME280;3962;42.696;23.354;2024-02-14T04:08:57;95002.00;;;6.32;81.49
7834;BME280;3962;42.696;23.354;2024-02-14T04:11:25;94993.00;;;6.34;81.17
7834;BME280;3962;42.696;23.354;2024-02-14T04:14:28;95002.09;;;6.41;81.81
7834;BME280;3962;42.696;23.354;2024-02-14T04:16:55;95002.16;;;6.30;82.06
7834;BME280;3962;42.696;23.354;2024-02-14T04:19:22;95001.19;;;6.31;81.43
7834;BME280;3962;42.696;23.354;2024-02-14T04:21:50;95004.22;;;6.27;80.79
7834;BME280;3962;42.696;23.354;2024-02-14T04:24:17;95006.41;;;6.22;81.75
7834;BME280;3962;42.696;23.354;2024-02-14T04:26:43;95017.16;;;6.09;82.19
7834;BME280;3962;42.696;23.354;2024-02-14T04:29:10;95009.69;;;6.14;82.69
7834;BME280;3962;42.696;23.354;2024-02-14T04:31:37;95016.88;;;6.12;82.82
7834;BME280;3962;42.696;23.354;2024-02-14T04:34:04;95009.50;;;6.06;82.08
7834;BME280;3962;42.696;23.354;2024-02-14T04:36:33;95019.03;;;6.18;82.44
7834;BME280;3962;42.696;23.354;2024-02-14T04:39:02;95019.69;;;6.11;82.10
7834;BME280;3962;42.696;23.354;2024-02-14T04:41:29;95028.31;;;6.13;82.37
7834;BME280;3962;42.696;23.354;2024-02-14T04:43:56;95019.22;;;6.06;83.08
7834;BME280;3962;42.696;23.354;2024-02-14T04:46:22;95025.41;;;6.16;83.18
7834;BME280;3962;42.696;23.354;2024-02-14T04:48:49;95035.72;;;6.19;81.51
7834;BME280;3962;42.696;23.354;2024-02-14T04:51:16;95037.41;;;6.20;81.53
7834;BME280;3962;42.696;23.354;2024-02-14T04:53:43;95040.44;;;6.04;82.27
7834;BME280;3962;42.696;23.354;2024-02-14T04:56:11;95042.22;;;6.15;82.65
7834;BME280;3962;42.696;23.354;2024-02-14T04:58:38;95046.88;;;6.22;82.85
7834;BME280;3962;42.696;23.354;2024-02-14T05:01:04;95047.59;;;6.24;83.11
7834;BME280;3962;42.696;23.354;2024-02-14T05:03:32;95046.09;;;6.11;83.15
7834;BME280;3962;42.696;23.354;2024-02-14T05:05:59;95043.44;;;6.11;82.46
7834;BME280;3962;42.696;23.354;2024-02-14T05:08:28;95052.78;;;6.15;82.53
7834;BME280;3962;42.696;23.354;2024-02-14T05:10:54;95055.63;;;6.23;83.22
7834;BME280;3962;42.696;23.354;2024-02-14T05:13:23;95058.97;;;6.25;82.26
7834;BME280;3962;42.696;23.354;2024-02-14T05:15:50;95067.03;;;6.23;83.06
7834;BME280;3962;42.696;23.354;2024-02-14T05:18:17;95068.50;;;6.16;82.66
7834;BME280;3962;42.696;23.354;2024-02-14T05:20:44;95073.69;;;6.18;82.37
7834;BME280;3962;42.696;23.354;2024-02-14T05:23:10;95083.13;;;6.20;82.54
7834;BME280;3962;42.696;23.354;2024-02-14T05:25:37;95092.38;;;6.26;82.28
7834;BME280;3962;42.696;23.354;2024-02-14T05:28:05;95088.66;;;6.17;82.51
7834;BME280;3962;42.696;23.354;2024-02-14T05:30:33;95084.94;;;6.20;82.52
7834;BME280;3962;42.696;23.354;2024-02-14T05:33:02;95094.13;;;6.05;82.49
7834;BME280;3962;42.696;23.354;2024-02-14T05:35:29;95093.63;;;6.11;82.93
7834;BME280;3962;42.696;23.354;2024-02-14T05:37:55;95087.13;;;6.15;83.01
7834;BME280;3962;42.696;23.354;2024-02-14T05:40:22;95102.97;;;6.15;81.84
7834;BME280;3962;42.696;23.354;2024-02-14T05:42:49;95112.44;;;6.17;81.87
7834;BME280;3962;42.696;23.354;2024-02-14T05:45:16;95109.84;;;6.06;82.50
7834;BME280;3962;42.696;23.354;2024-02-14T05:47:45;95112.72;;;6.03;82.84
7834;BME280;3962;42.696;23.354;2024-02-14T05:50:12;95118.09;;;6.44;82.66
7834;BME280;3962;42.696;23.354;2024-02-14T05:52:39;95114.16;;;6.39;81.57
7834;BME280;3962;42.696;23.354;2024-02-14T05:55:06;95117.28;;;6.33;81.44
7834;BME280;3962;42.696;23.354;2024-02-14T05:57:34;95126.19;;;6.32;81.24
7834;BME280;3962;42.696;23.354;2024-02-14T06:00:01;95130.78;;;6.30;81.07
7834;BME280;3962;42.696;23.354;2024-02-14T06:02:29;95128.78;;;6.11;81.15
7834;BME280;3962;42.696;23.354;2024-02-14T06:04:58;95137.31;;;6.15;81.24
7834;BME280;3962;42.696;23.354;2024-02-14T06:07:24;95137.94;;;6.07;80.99
7834;BME280;3962;42.696;23.354;2024-02-14T06:09:51;95140.41;;;6.20;82.19
7834;BME280;3962;42.696;23.354;2024-02-14T06:12:18;95152.31;;;6.14;80.72
7834;BME280;3962;42.696;23.354;2024-02-14T06:14:48;95144.41;;;6.14;80.90
7834;BME280;3962;42.696;23.354;2024-02-14T06:17:14;95150.53;;;6.04;81.06
7834;BME280;3962;42.696;23.354;2024-02-14T06:19:42;95152.00;;;5.97;81.18
7834;BME280;3962;42.696;23.354;2024-02-14T06:22:11;95153.31;;;6.02;80.91
7834;BME280;3962;42.696;23.354;2024-02-14T06:24:38;95159.56;;;6.01;80.92
7834;BME280;3962;42.696;23.354;2024-02-14T06:27:05;95157.41;;;5.95;81.17
7834;BME280;3962;42.696;23.354;2024-02-14T06:29:31;95162.94;;;5.92;79.74
7834;BME280;3962;42.696;23.354;2024-02-14T06:31:59;95156.53;;;6.06;81.04
7834;BME280;3962;42.696;23.354;2024-02-14T06:34:26;95169.16;;;6.02;79.99
7834;BME280;3962;42.696;23.354;2024-02-14T06:36:54;95164.47;;;6.06;80.45
7834;BME280;3962;42.696;23.354;2024-02-14T06:39:22;95172.50;;;6.04;80.24
7834;BME280;3962;42.696;23.354;2024-02-14T06:41:49;95177.94;;;6.03;80.66
7834;BME280;3962;42.696;23.354;2024-02-14T06:44:16;95172.00;;;6.10;79.79
7834;BME280;3962;42.696;23.354;2024-02-14T06:46:44;95175.97;;;6.16;79.70
7834;BME280;3962;42.696;23.354;2024-02-14T06:49:11;95171.19;;;6.10;78.75
7834;BME280;3962;42.696;23.354;2024-02-14T06:51:38;95177.13;;;6.23;78.86
7834;BME280;3962;42.696;23.354;2024-02-14T06:54:05;95178.44;;;6.28;79.17
7834;BME280;3962;42.696;23.354;2024-02-14T06:56:33;95180.88;;;6.20;78.38
7834;BME280;3962;42.696;23.354;2024-02-14T06:59:00;95189.53;;;6.11;78.26
7834;BME280;3962;42.696;23.354;2024-02-14T07:01:28;95184.50;;;6.08;79.20
7834;BME280;3962;42.696;23.354;2024-02-14T07:03:55;95191.94;;;6.14;78.74
7834;BME280;3962;42.696;23.354;2024-02-14T07:06:22;95201.41;;;6.28;78.42
7834;BME280;3962;42.696;23.354;2024-02-14T07:08:49;95200.53;;;6.27;78.64
7834;BME280;3962;42.696;23.354;2024-02-14T07:11:16;95206.75;;;6.48;77.71
7834;BME280;3962;42.696;23.354;2024-02-14T07:13:44;95213.19;;;6.13;78.45
7834;BME280;3962;42.696;23.354;2024-02-14T07:16:11;95212.19;;;6.25;77.95
7834;BME280;3962;42.696;23.354;2024-02-14T07:18:38;95218.47;;;6.02;77.70
7834;BME280;3962;42.696;23.354;2024-02-14T07:21:05;95227.38;;;6.12;78.44
7834;BME280;3962;42.696;23.354;2024-02-14T07:23:32;95221.09;;;6.24;78.16
7834;BME280;3962;42.696;23.354;2024-02-14T07:26:00;95223.47;;;6.38;77.39
7834;BME280;3962;42.696;23.354;2024-02-14T07:28:27;95224.41;;;6.48;76.54
7834;BME280;3962;42.696;23.354;2024-02-14T07:30:56;95223.69;;;6.46;76.52
7834;BME280;3962;42.696;23.354;2024-02-14T07:33:22;95224.88;;;6.53;76.62
7834;BME280;3962;42.696;23.354;2024-02-14T07:35:50;95232.97;;;6.40;75.46
7834;BME280;3962;42.696;23.354;2024-02-14T07:38:17;95230.91;;;6.44;76.36
7834;BME280;3962;42.696;23.354;2024-02-14T07:40:44;95234.28;;;6.24;75.01
7834;BME280;3962;42.696;23.354;2024-02-14T07:43:11;95232.03;;;6.30;75.15
7834;BME280;3962;42.696;23.354;2024-02-14T07:45:38;95234.53;;;6.32;76.36
7834;BME280;3962;42.696;23.354;2024-02-14T07:48:07;95231.88;;;6.43;75.47
7834;BME280;3962;42.696;23.354;2024-02-14T07:50:34;95227.56;;;6.31;75.46
7834;BME280;3962;42.696;23.354;2024-02-14T07:53:01;95238.63;;;6.25;76.15
7834;BME280;3962;42.696;23.354;2024-02-14T07:55:29;95238.31;;;5.85;76.34
7834;BME280;3962;42.696;23.354;2024-02-14T07:57:56;95248.13;;;5.94;78.43
7834;BME280;3962;42.696;23.354;2024-02-14T08:00:23;95238.19;;;5.98;76.50
7834;BME280;3962;42.696;23.354;2024-02-14T08:02:49;95246.69;;;6.12;76.44
7834;BME280;3962;42.696;23.354;2024-02-14T08:05:18;95243.22;;;6.12;77.25
7834;BME280;3962;42.696;23.354;2024-02-14T08:07:45;95237.22;;;6.10;76.88
7834;BME280;3962;42.696;23.354;2024-02-14T08:10:15;95228.91;;;6.03;75.87
7834;BME280;3962;42.696;23.354;2024-02-14T08:12:42;95244.31;;;5.98;75.93
7834;BME280;3962;42.696;23.354;2024-02-14T08:15:09;95253.06;;;5.99;77.65
7834;BME280;3962;42.696;23.354;2024-02-14T08:17:36;95254.88;;;5.98;76.99
7834;BME280;3962;42.696;23.354;2024-02-14T08:20:04;95256.66;;;5.98;77.06
7834;BME280;3962;42.696;23.354;2024-02-14T08:22:32;95254.28;;;5.95;77.17
7834;BME280;3962;42.696;23.354;2024-02-14T08:24:59;95256.78;;;5.85;78.00
7834;BME280;3962;42.696;23.354;2024-02-14T08:27:27;95271.38;;;5.78;77.40
7834;BME280;3962;42.696;23.354;2024-02-14T08:29:53;95269.50;;;5.80;78.47
7834;BME280;3962;42.696;23.354;2024-02-14T08:32:20;95267.34;;;5.85;77.03
7834;BME280;3962;42.696;23.354;2024-02-14T08:34:47;95274.06;;;6.11;77.00
7834;BME280;3962;42.696;23.354;2024-02-14T08:37:15;95270.91;;;6.28;76.00
7834;BME280;3962;42.696;23.354;2024-02-14T08:39:44;95269.72;;;6.21;75.63
7834;BME280;3962;42.696;23.354;2024-02-14T08:42:11;95269.88;;;6.20;75.43
7834;BME280;3962;42.696;23.354;2024-02-14T08:44:38;95271.28;;;6.02;75.09
7834;BME280;3962;42.696;23.354;2024-02-14T08:47:06;95277.31;;;6.04;76.69
7834;BME280;3962;42.696;23.354;2024-02-14T08:49:34;95285.25;;;6.04;76.44
7834;BME280;3962;42.696;23.354;2024-02-14T08:52:01;95284.16;;;6.06;76.41
7834;BME280;3962;42.696;23.354;2024-02-14T08:54:28;95289.09;;;6.11;75.66
7834;BME280;3962;42.696;23.354;2024-02-14T08:56:56;95294.50;;;5.98;76.21
7834;BME280;3962;42.696;23.354;2024-02-14T08:59:24;95298.09;;;6.08;75.00
7834;BME280;3962;42.696;23.354;2024-02-14T09:01:51;95290.75;;;6.01;75.46
7834;BME280;3962;42.696;23.354;2024-02-14T09:04:18;95299.75;;;6.09;74.88
7834;BME280;3962;42.696;23.354;2024-02-14T09:06:45;95300.22;;;6.25;74.02
7834;BME280;3962;42.696;23.354;2024-02-14T09:09:12;95306.59;;;6.23;75.72
7834;BME280;3962;42.696;23.354;2024-02-14T09:11:42;95309.84;;;6.15;75.01
7834;BME280;3962;42.696;23.354;2024-02-14T09:14:10;95307.91;;;6.17;75.97
7834;BME280;3962;42.696;23.354;2024-02-14T09:16:37;95309.22;;;5.90;76.04
7834;BME280;3962;42.696;23.354;2024-02-14T09:19:04;95301.66;;;5.96;75.65
7834;BME280;3962;42.696;23.354;2024-02-14T09:21:33;95293.28;;;6.02;74.83
7834;BME280;3962;42.696;23.354;2024-02-14T09:24:01;95313.09;;;5.97;75.70
7834;BME280;3962;42.696;23.354;2024-02-14T09:26:28;95320.66;;;6.01;75.23
7834;BME280;3962;42.696;23.354;2024-02-14T09:28:55;95315.84;;;6.06;74.68
7834;BME280;3962;42.696;23.354;2024-02-14T09:31:23;95317.50;;;5.96;75.84
7834;BME280;3962;42.696;23.354;2024-02-14T09:33:50;95321.38;;;6.14;75.97
7834;BME280;3962;42.696;23.354;2024-02-14T09:36:22;95321.84;;;6.30;75.69
7834;BME280;3962;42.696;23.354;2024-02-14T09:38:49;95320.16;;;6.29;74.45
7834;BME280;3962;42.696;23.354;2024-02-14T09:41:21;95316.44;;;6.21;74.54
7834;BME280;3962;42.696;23.354;2024-02-14T09:43:49;95313.94;;;6.08;74.49
7834;BME280;3962;42.696;23.354;2024-02-14T09:46:15;95315.94;;;5.94;75.41
7834;BME280;3962;42.696;23.354;2024-02-14T09:48:45;95318.00;;;6.01;75.91
7834;BME280;3962;42.696;23.354;2024-02-14T09:51:12;95314.91;;;6.07;75.51
7834;BME280;3962;42.696;23.354;2024-02-14T09:53:39;95303.25;;;6.10;74.53
7834;BME280;3962;42.696;23.354;2024-02-14T09:56:09;95302.66;;;6.06;75.08
7834;BME280;3962;42.696;23.354;2024-02-14T09:58:37;95301.06;;;5.93;73.96
7834;BME280;3962;42.696;23.354;2024-02-14T10:01:04;95305.06;;;5.98;74.27
7834;BME280;3962;42.696;23.354;2024-02-14T10:03:33;95305.50;;;6.03;75.29
7834;BME280;3962;42.696;23.354;2024-02-14T10:06:02;95308.75;;;6.07;75.76
7834;BME280;3962;42.696;23.354;2024-02-14T10:08:31;95311.16;;;5.99;74.47
7834;BME280;3962;42.696;23.354;2024-02-14T10:10:58;95306.81;;;6.09;75.57
7834;BME280;3962;42.696;23.354;2024-02-14T10:13:27;95312.25;;;6.07;73.63
7834;BME280;3962;42.696;23.354;2024-02-14T10:15:55;95300.69;;;5.97;73.47
7834;BME280;3962;42.696;23.354;2024-02-14T10:18:22;95312.69;;;5.79;74.67
7834;BME280;3962;42.696;23.354;2024-02-14T10:20:54;95303.00;;;5.91;74.97
7834;BME280;3962;42.696;23.354;2024-02-14T10:23:22;95313.31;;;6.16;75.10
7834;BME280;3962;42.696;23.354;2024-02-14T10:25:50;95302.25;;;6.00;73.92
7834;BME280;3962;42.696;23.354;2024-02-14T10:28:18;95302.03;;;6.03;74.91
7834;BME280;3962;42.696;23.354;2024-02-14T10:30:46;95308.16;;;6.25;73.89
7834;BME280;3962;42.696;23.354;2024-02-14T10:33:14;95311.53;;;6.38;73.60
7834;BME280;3962;42.696;23.354;2024-02-14T10:35:42;95318.09;;;6.33;72.53
7834;BME280;3962;42.696;23.354;2024-02-14T10:38:09;95314.28;;;6.37;73.01
7834;BME280;3962;42.696;23.354;2024-02-14T10:40:39;95309.09;;;6.13;72.57
7834;BME280;3962;42.696;23.354;2024-02-14T10:43:06;95306.97;;;6.07;73.24
7834;BME280;3962;42.696;23.354;2024-02-14T10:45:35;95304.06;;;6.21;72.88
7834;BME280;3962;42.696;23.354;2024-02-14T10:48:04;95303.72;;;6.26;71.71
7834;BME280;3962;42.696;23.354;2024-02-14T10:50:33;95302.13;;;6.34;72.20
7834;BME280;3962;42.696;23.354;2024-02-14T10:53:04;95309.09;;;6.35;71.84
7834;BME280;3962;42.696;23.354;2024-02-14T10:55:33;95309.59;;;6.40;71.45
7834;BME280;3962;42.696;23.354;2024-02-14T10:58:03;95304.06;;;6.32;71.21
7834;BME280;3962;42.696;23.354;2024-02-14T11:00:31;95306.09;;;6.40;71.69
7834;BME280;3962;42.696;23.354;2024-02-14T11:02:59;95313.19;;;6.39;71.74
7834;BME280;3962;42.696;23.354;2024-02-14T11:05:27;95309.84;;;6.26;72.26
7834;BME280;3962;42.696;23.354;2024-02-14T11:07:54;95311.16;;;6.21;72.05
7834;BME280;3962;42.696;23.354;2024-02-14T11:10:22;95302.88;;;6.03;71.31
7834;BME280;3962;42.696;23.354;2024-02-14T11:12:49;95319.66;;;6.13;72.99
7834;BME280;3962;42.696;23.354;2024-02-14T11:15:19;95312.72;;;6.23;72.01
7834;BME280;3962;42.696;23.354;2024-02-14T11:17:47;95311.63;;;6.15;72.36
7834;BME280;3962;42.696;23.354;2024-02-14T11:20:18;95315.50;;;6.11;71.65
7834;BME280;3962;42.696;23.354;2024-02-14T11:22:54;95307.53;;;6.33;72.45
7834;BME280;3962;42.696;23.354;2024-02-14T11:25:23;95308.16;;;6.25;71.58
7834;BME280;3962;42.696;23.354;2024-02-14T11:27:55;95308.03;;;6.38;71.65
7834;BME280;3962;42.696;23.354;2024-02-14T11:30:34;95313.88;;;6.52;71.18
7834;BME280;3962;42.696;23.354;2024-02-14T11:33:17;95311.00;;;6.55;71.38
7834;BME280;3962;42.696;23.354;2024-02-14T11:35:46;95309.78;;;6.59;70.16
7834;BME280;3962;42.696;23.354;2024-02-14T11:38:15;95307.50;;;6.66;71.29
7834;BME280;3962;42.696;23.354;2024-02-14T11:40:43;95313.41;;;6.58;71.83
7834;BME280;3962;42.696;23.354;2024-02-14T11:43:11;95305.16;;;6.30;71.31
7834;BME280;3962;42.696;23.354;2024-02-14T11:45:41;95308.25;;;6.46;71.46
7834;BME280;3962;42.696;23.354;2024-02-14T11:48:09;95313.19;;;6.28;71.99
7834;BME280;3962;42.696;23.354;2024-02-14T11:50:39;95298.44;;;6.26;72.31
7834;BME280;3962;42.696;23.354;2024-02-14T11:53:06;95305.41;;;6.27;71.68
7834;BME280;3962;42.696;23.354;2024-02-14T11:55:36;95309.59;;;6.40;71.90
7834;BME280;3962;42.696;23.354;2024-02-14T11:58:06;95294.69;;;6.39;71.60
7834;BME280;3962;42.696;23.354;2024-02-14T12:00:34;95301.06;;;6.37;72.10
7834;BME280;3962;42.696;23.354;2024-02-14T12:03:09;95288.94;;;6.34;71.89
7834;BME280;3962;42.696;23.354;2024-02-14T12:05:37;95299.63;;;6.44;70.52
7834;BME280;3962;42.696;23.354;2024-02-14T12:08:05;95299.97;;;6.50;70.38
7834;BME280;3962;42.696;23.354;2024-02-14T12:10:33;95296.94;;;6.55;71.32
7834;BME280;3962;42.696;23.354;2024-02-14T12:13:06;95301.19;;;6.46;70.40
7834;BME280;3962;42.696;23.354;2024-02-14T12:15:37;95296.78;;;6.67;71.42
7834;BME280;3962;42.696;23.354;2024-02-14T12:18:05;95298.75;;;6.54;70.78
7834;BME280;3962;42.696;23.354;2024-02-14T12:20:32;95281.53;;;6.71;71.08
7834;BME280;3962;42.696;23.354;2024-02-14T12:22:59;95293.94;;;6.70;69.21
7834;BME280;3962;42.696;23.354;2024-02-14T12:25:26;95290.31;;;6.60;70.10
7834;BME280;3962;42.696;23.354;2024-02-14T12:27:56;95295.38;;;6.63;69.79
7834;BME280;3962;42.696;23.354;2024-02-14T12:30:35;95294.56;;;6.52;70.67
7834;BME280;3962;42.696;23.354;2024-02-14T12:33:12;95297.38;;;6.71;69.55
7834;BME280;3962;42.696;23.354;2024-02-14T12:35:43;95290.41;;;6.81;69.81
7834;BME280;3962;42.696;23.354;2024-02-14T12:38:11;95297.00;;;6.75;70.47
7834;BME280;3962;42.696;23.354;2024-02-14T12:40:39;95284.66;;;6.76;68.78
7834;BME280;3962;42.696;23.354;2024-02-14T12:43:07;95294.81;;;6.91;69.34
7834;BME280;3962;42.696;23.354;2024-02-14T12:45:34;95288.91;;;6.99;68.18
7834;BME280;3962;42.696;23.354;2024-02-14T12:48:00;95291.25;;;7.13;69.31
7834;BME280;3962;42.696;23.354;2024-02-14T12:50:30;95288.94;;;7.19;67.98
7834;BME280;3962;42.696;23.354;2024-02-14T12:52:57;95292.28;;;7.21;67.38
7834;BME280;3962;42.696;23.354;2024-02-14T12:55:24;95285.31;;;7.20;67.50
7834;BME280;3962;42.696;23.354;2024-02-14T12:57:51;95296.69;;;7.00;68.61
7834;BME280;3962;42.696;23.354;2024-02-14T13:00:18;95295.13;;;7.08;68.75
7834;BME280;3962;42.696;23.354;2024-02-14T13:02:46;95296.66;;;7.11;67.59
7834;BME280;3962;42.696;23.354;2024-02-14T13:05:13;95291.25;;;7.13;68.45
7834;BME280;3962;42.696;23.354;2024-02-14T13:07:42;95303.03;;;7.08;67.55
7834;BME280;3962;42.696;23.354;2024-02-14T13:10:09;95302.09;;;7.09;68.34
7834;BME280;3962;42.696;23.354;2024-02-14T13:12:37;95303.13;;;7.18;67.93
7834;BME280;3962;42.696;23.354;2024-02-14T13:15:05;95310.69;;;7.22;67.64
7834;BME280;3962;42.696;23.354;2024-02-14T13:17:32;95307.41;;;7.30;67.10
7834;BME280;3962;42.696;23.354;2024-02-14T13:19:59;95308.63;;;7.26;67.10
7834;BME280;3962;42.696;23.354;2024-02-14T13:22:26;95307.06;;;7.23;66.99
7834;BME280;3962;42.696;23.354;2024-02-14T13:24:55;95298.44;;;7.21;67.24